This is the latest recevied weather packets stored in our database for station/object IN3MWE-10. If no packets are shown the sender has not sent any weather packets the latest 10 day(s).
| Time | Temp. | Humidity | Pressure | Rain* | Wind** | Luminosity | Snow |
|---|---|---|---|---|---|---|---|
| 1777672224 | 13.89° C | 44% | 989.8 hPa | - | - | - | - |
| 1777671324 | 13.89° C | 44% | 989.6 hPa | - | - | - | - |
| 1777670424 | 13.89° C | 44% | 989.6 hPa | - | - | - | - |
| 1777669524 | 13.89° C | 44% | 989.4 hPa | - | - | - | - |
| 1777668624 | 14.44° C | 44% | 989.3 hPa | - | - | - | - |
| 1777667724 | 14.44° C | 44% | 989.2 hPa | - | - | - | - |
| 1777666824 | 14.44° C | 43% | 989 hPa | - | - | - | - |
| 1777665923 | 15° C | 42% | 988.7 hPa | - | - | - | - |
| 1777665023 | 15° C | 41% | 988.7 hPa | - | - | - | - |
| 1777664123 | 15.56° C | 41% | 988.4 hPa | - | - | - | - |
| 1777663223 | 15.56° C | 41% | 988.2 hPa | - | - | - | - |
| 1777662323 | 15.56° C | 40% | 987.9 hPa | - | - | - | - |
| 1777661423 | 16.11° C | 39% | 987.5 hPa | - | - | - | - |
| 1777660523 | 16.67° C | 36% | 987.1 hPa | - | - | - | - |
| 1777659623 | 17.78° C | 30% | 986.8 hPa | - | - | - | - |
| 1777658722 | 18.33° C | 29% | 986.5 hPa | - | - | - | - |
| 1777657822 | 18.33° C | 28% | 986.1 hPa | - | - | - | - |
| 1777656922 | 18.89° C | 27% | 985.8 hPa | - | - | - | - |
| 1777656022 | 18.89° C | 28% | 985.6 hPa | - | - | - | - |
| 1777655122 | 19.44° C | 27% | 985.4 hPa | - | - | - | - |
| 1777654222 | 20° C | 27% | 985.2 hPa | - | - | - | - |
| 1777653322 | 20° C | 26% | 985.2 hPa | - | - | - | - |
| 1777652421 | 21.67° C | 24% | 985.2 hPa | - | - | - | - |
| 1777651521 | 23.33° C | 22% | 985 hPa | - | - | - | - |
| 1777650621 | 23.89° C | 22% | 984.9 hPa | - | - | - | - |
* Rain since midnight (hover to see other rain measurements)
** Current wind speed in m/s (hover to see current wind gust speed)